sensor_id;sensor_type;location;lat;lon;timestamp;pressure;altitude;pressure_sealevel;temperature;humidity
61900;BME280;47853;55.890;37.664;2023-08-30T00:01:50;99184.31;;;21.67;100.00
61900;BME280;47853;55.890;37.664;2023-08-30T00:04:15;99174.97;;;21.58;100.00
61900;BME280;47853;55.890;37.664;2023-08-30T00:06:41;99173.72;;;21.49;100.00
61900;BME280;47853;55.890;37.664;2023-08-30T00:09:06;99176.97;;;22.02;100.00
61900;BME280;47853;55.890;37.664;2023-08-30T00:11:31;99188.38;;;22.04;100.00
61900;BME280;47853;55.890;37.664;2023-08-30T00:14:04;99187.53;;;22.21;100.00
61900;BME280;47853;55.890;37.664;2023-08-30T00:16:31;99183.75;;;22.22;100.00
61900;BME280;47853;55.890;37.664;2023-08-30T00:18:57;99180.94;;;22.34;100.00
61900;BME280;47853;55.890;37.664;2023-08-30T00:21:22;99189.13;;;21.99;100.00
61900;BME280;47853;55.890;37.664;2023-08-30T00:23:47;99178.09;;;22.23;100.00
61900;BME280;47853;55.890;37.664;2023-08-30T00:26:13;99188.84;;;22.18;100.00
61900;BME280;47853;55.890;37.664;2023-08-30T00:28:38;99186.22;;;22.06;100.00
61900;BME280;47853;55.890;37.664;2023-08-30T00:31:04;99177.78;;;22.20;100.00
61900;BME280;47853;55.890;37.664;2023-08-30T00:33:32;99184.47;;;21.14;100.00
61900;BME280;47853;55.890;37.664;2023-08-30T00:36:00;99189.66;;;20.34;100.00
61900;BME280;47853;55.890;37.664;2023-08-30T00:38:27;99197.75;;;19.32;100.00
61900;BME280;47853;55.890;37.664;2023-08-30T00:40:53;99192.09;;;19.88;100.00
61900;BME280;47853;55.890;37.664;2023-08-30T00:43:19;99187.09;;;20.68;100.00
61900;BME280;47853;55.890;37.664;2023-08-30T00:45:45;99180.91;;;20.97;100.00
61900;BME280;47853;55.890;37.664;2023-08-30T00:48:11;99188.66;;;21.05;100.00
61900;BME280;47853;55.890;37.664;2023-08-30T00:50:37;99189.47;;;21.23;100.00
61900;BME280;47853;55.890;37.664;2023-08-30T00:53:03;99191.28;;;21.34;100.00
61900;BME280;47853;55.890;37.664;2023-08-30T00:55:29;99204.25;;;21.49;100.00
61900;BME280;47853;55.890;37.664;2023-08-30T00:57:54;99194.88;;;21.23;100.00
61900;BME280;47853;55.890;37.664;2023-08-30T01:00:20;99203.13;;;20.22;100.00
61900;BME280;47853;55.890;37.664;2023-08-30T01:02:45;99207.94;;;19.96;100.00
61900;BME280;47853;55.890;37.664;2023-08-30T01:05:11;99206.63;;;20.47;100.00
61900;BME280;47853;55.890;37.664;2023-08-30T01:07:36;99214.31;;;20.67;100.00
61900;BME280;47853;55.890;37.664;2023-08-30T01:10:01;99212.31;;;20.86;100.00
61900;BME280;47853;55.890;37.664;2023-08-30T01:12:42;99223.91;;;20.75;100.00
61900;BME280;47853;55.890;37.664;2023-08-30T01:15:29;99207.13;;;20.84;100.00
61900;BME280;47853;55.890;37.664;2023-08-30T01:17:55;99213.09;;;20.75;100.00
61900;BME280;47853;55.890;37.664;2023-08-30T01:20:23;99205.88;;;21.33;100.00
61900;BME280;47853;55.890;37.664;2023-08-30T01:22:55;99208.72;;;21.26;100.00
61900;BME280;47853;55.890;37.664;2023-08-30T01:25:40;99200.69;;;21.14;100.00
61900;BME280;47853;55.890;37.664;2023-08-30T01:28:08;99206.16;;;21.83;100.00
61900;BME280;47853;55.890;37.664;2023-08-30T01:30:38;99205.09;;;22.01;99.49
61900;BME280;47853;55.890;37.664;2023-08-30T01:33:05;99199.75;;;22.06;98.57
61900;BME280;47853;55.890;37.664;2023-08-30T01:35:32;99208.34;;;22.03;97.47
61900;BME280;47853;55.890;37.664;2023-08-30T01:38:02;99215.63;;;21.51;100.00
61900;BME280;47853;55.890;37.664;2023-08-30T01:40:30;99212.09;;;21.05;100.00
61900;BME280;47853;55.890;37.664;2023-08-30T01:42:56;99216.97;;;20.91;100.00
61900;BME280;47853;55.890;37.664;2023-08-30T01:45:23;99211.34;;;21.21;100.00
61900;BME280;47853;55.890;37.664;2023-08-30T01:47:49;99225.59;;;20.64;100.00
61900;BME280;47853;55.890;37.664;2023-08-30T01:50:16;99231.94;;;20.46;100.00
61900;BME280;47853;55.890;37.664;2023-08-30T01:52:42;99226.75;;;20.68;100.00
61900;BME280;47853;55.890;37.664;2023-08-30T01:55:08;99230.00;;;19.63;100.00
61900;BME280;47853;55.890;37.664;2023-08-30T01:57:35;99228.44;;;20.21;100.00
61900;BME280;47853;55.890;37.664;2023-08-30T02:00:00;99223.91;;;20.75;100.00
61900;BME280;47853;55.890;37.664;2023-08-30T02:02:30;99224.25;;;20.78;100.00
61900;BME280;47853;55.890;37.664;2023-08-30T02:04:55;99216.94;;;21.03;100.00
61900;BME280;47853;55.890;37.664;2023-08-30T02:07:25;99231.31;;;20.79;100.00
61900;BME280;47853;55.890;37.664;2023-08-30T02:12:19;99234.38;;;20.83;100.00
61900;BME280;47853;55.890;37.664;2023-08-30T02:14:48;99223.66;;;21.17;100.00
61900;BME280;47853;55.890;37.664;2023-08-30T02:17:15;99221.91;;;21.40;100.00
61900;BME280;47853;55.890;37.664;2023-08-30T02:19:44;99207.75;;;21.33;100.00
61900;BME280;47853;55.890;37.664;2023-08-30T02:22:13;99215.53;;;21.46;98.65
61900;BME280;47853;55.890;37.664;2023-08-30T02:24:39;99208.34;;;21.35;98.19
61900;BME280;47853;55.890;37.664;2023-08-30T02:27:04;99219.66;;;20.91;100.00
61900;BME280;47853;55.890;37.664;2023-08-30T02:29:30;99208.44;;;20.70;100.00
61900;BME280;47853;55.890;37.664;2023-08-30T02:31:55;99228.13;;;20.70;100.00
61900;BME280;47853;55.890;37.664;2023-08-30T02:34:21;99221.56;;;20.66;100.00
61900;BME280;47853;55.890;37.664;2023-08-30T02:36:46;99233.94;;;20.03;100.00
61900;BME280;47853;55.890;37.664;2023-08-30T02:39:14;99247.81;;;19.64;100.00
61900;BME280;47853;55.890;37.664;2023-08-30T02:41:39;99240.63;;;20.24;100.00
61900;BME280;47853;55.890;37.664;2023-08-30T02:44:04;99239.88;;;20.88;100.00
61900;BME280;47853;55.890;37.664;2023-08-30T02:46:30;99237.66;;;21.14;100.00
61900;BME280;47853;55.890;37.664;2023-08-30T02:48:55;99245.22;;;21.29;100.00
61900;BME280;47853;55.890;37.664;2023-08-30T02:51:20;99232.69;;;21.23;100.00
61900;BME280;47853;55.890;37.664;2023-08-30T02:53:46;99239.81;;;21.29;99.19
61900;BME280;47853;55.890;37.664;2023-08-30T02:56:11;99246.94;;;21.64;97.00
61900;BME280;47853;55.890;37.664;2023-08-30T02:58:36;99246.00;;;21.58;96.29
61900;BME280;47853;55.890;37.664;2023-08-30T03:01:02;99238.06;;;21.52;99.18
61900;BME280;47853;55.890;37.664;2023-08-30T03:03:27;99234.91;;;21.26;100.00
61900;BME280;47853;55.890;37.664;2023-08-30T03:05:53;99242.31;;;20.90;100.00
61900;BME280;47853;55.890;37.664;2023-08-30T03:08:18;99237.38;;;20.98;100.00
61900;BME280;47853;55.890;37.664;2023-08-30T03:10:44;99237.94;;;21.00;100.00
61900;BME280;47853;55.890;37.664;2023-08-30T03:13:09;99232.88;;;21.33;100.00
61900;BME280;47853;55.890;37.664;2023-08-30T03:15:34;99237.56;;;21.38;100.00
61900;BME280;47853;55.890;37.664;2023-08-30T03:18:00;99238.56;;;21.20;100.00
61900;BME280;47853;55.890;37.664;2023-08-30T03:20:25;99226.25;;;21.41;99.68
61900;BME280;47853;55.890;37.664;2023-08-30T03:22:51;99231.09;;;21.39;99.93
61900;BME280;47853;55.890;37.664;2023-08-30T03:25:16;99221.88;;;21.52;98.35
61900;BME280;47853;55.890;37.664;2023-08-30T03:27:44;99233.22;;;21.66;96.48
61900;BME280;47853;55.890;37.664;2023-08-30T03:30:10;99229.41;;;22.01;94.61
61900;BME280;47853;55.890;37.664;2023-08-30T03:32:36;99244.06;;;21.25;99.93
61900;BME280;47853;55.890;37.664;2023-08-30T03:35:01;99253.50;;;21.39;99.30
61900;BME280;47853;55.890;37.664;2023-08-30T03:37:27;99243.06;;;21.60;98.85
61900;BME280;47853;55.890;37.664;2023-08-30T03:39:52;99245.75;;;21.43;99.47
61900;BME280;47853;55.890;37.664;2023-08-30T03:42:17;99239.28;;;21.44;98.04
61900;BME280;47853;55.890;37.664;2023-08-30T03:44:43;99238.06;;;21.52;96.45
61900;BME280;47853;55.890;37.664;2023-08-30T03:47:08;99247.88;;;20.59;100.00
61900;BME280;47853;55.890;37.664;2023-08-30T03:49:35;99244.47;;;20.64;100.00
61900;BME280;47853;55.890;37.664;2023-08-30T03:52:00;99242.75;;;20.98;100.00
61900;BME280;47853;55.890;37.664;2023-08-30T03:54:26;99245.72;;;20.73;100.00
61900;BME280;47853;55.890;37.664;2023-08-30T03:56:51;99245.25;;;20.88;100.00
61900;BME280;47853;55.890;37.664;2023-08-30T03:59:16;99246.06;;;20.89;100.00
61900;BME280;47853;55.890;37.664;2023-08-30T04:01:42;99245.78;;;20.25;100.00
61900;BME280;47853;55.890;37.664;2023-08-30T04:04:07;99246.13;;;20.41;100.00
61900;BME280;47853;55.890;37.664;2023-08-30T04:06:32;99242.16;;;19.96;100.00
61900;BME280;47853;55.890;37.664;2023-08-30T04:08:58;99250.81;;;20.57;100.00
61900;BME280;47853;55.890;37.664;2023-08-30T04:11:23;99257.81;;;20.70;99.94
61900;BME280;47853;55.890;37.664;2023-08-30T04:13:49;99242.72;;;20.57;99.54
61900;BME280;47853;55.890;37.664;2023-08-30T04:16:14;99247.66;;;20.49;100.00
61900;BME280;47853;55.890;37.664;2023-08-30T04:18:39;99243.41;;;20.65;100.00
61900;BME280;47853;55.890;37.664;2023-08-30T04:21:05;99256.66;;;20.54;100.00
61900;BME280;47853;55.890;37.664;2023-08-30T04:23:30;99251.78;;;19.92;100.00
61900;BME280;47853;55.890;37.664;2023-08-30T04:25:55;99254.47;;;20.39;100.00
61900;BME280;47853;55.890;37.664;2023-08-30T04:28:21;99251.88;;;21.09;99.77
61900;BME280;47853;55.890;37.664;2023-08-30T04:30:47;99240.16;;;20.51;99.81
61900;BME280;47853;55.890;37.664;2023-08-30T04:33:12;99243.53;;;20.82;98.81
61900;BME280;47853;55.890;37.664;2023-08-30T04:35:37;99253.00;;;20.72;98.08
61900;BME280;47853;55.890;37.664;2023-08-30T04:38:03;99256.97;;;20.94;100.00
61900;BME280;47853;55.890;37.664;2023-08-30T04:40:29;99255.63;;;20.43;98.94
61900;BME280;47853;55.890;37.664;2023-08-30T04:42:54;99255.97;;;19.45;100.00
61900;BME280;47853;55.890;37.664;2023-08-30T04:45:19;99260.19;;;19.53;100.00
61900;BME280;47853;55.890;37.664;2023-08-30T04:47:45;99255.03;;;19.21;100.00
61900;BME280;47853;55.890;37.664;2023-08-30T04:50:10;99249.78;;;20.11;100.00
61900;BME280;47853;55.890;37.664;2023-08-30T04:52:35;99253.88;;;20.13;100.00
61900;BME280;47853;55.890;37.664;2023-08-30T04:55:01;99261.38;;;20.47;100.00
61900;BME280;47853;55.890;37.664;2023-08-30T04:57:26;99260.69;;;21.05;97.40
61900;BME280;47853;55.890;37.664;2023-08-30T04:59:51;99266.06;;;21.63;93.17
61900;BME280;47853;55.890;37.664;2023-08-30T05:02:17;99274.00;;;21.81;89.42
61900;BME280;47853;55.890;37.664;2023-08-30T05:04:42;99261.97;;;21.60;90.94
61900;BME280;47853;55.890;37.664;2023-08-30T05:07:07;99257.00;;;21.23;93.50
61900;BME280;47853;55.890;37.664;2023-08-30T05:09:33;99218.47;;;20.34;99.03
61900;BME280;47853;55.890;37.664;2023-08-30T05:11:58;99258.09;;;19.97;100.00
61900;BME280;47853;55.890;37.664;2023-08-30T05:14:24;99252.22;;;20.48;100.00
61900;BME280;47853;55.890;37.664;2023-08-30T05:16:50;99260.69;;;21.05;97.97
61900;BME280;47853;55.890;37.664;2023-08-30T05:19:15;99251.25;;;21.19;93.78
61900;BME280;47853;55.890;37.664;2023-08-30T05:21:40;99257.44;;;21.32;92.71
61900;BME280;47853;55.890;37.664;2023-08-30T05:24:06;99254.16;;;20.89;95.08
61900;BME280;47853;55.890;37.664;2023-08-30T05:26:31;99258.97;;;21.27;90.62
61900;BME280;47853;55.890;37.664;2023-08-30T05:28:57;99254.25;;;21.81;88.01
61900;BME280;47853;55.890;37.664;2023-08-30T05:31:22;99245.66;;;21.38;90.15
61900;BME280;47853;55.890;37.664;2023-08-30T05:33:47;99241.88;;;21.10;91.29
61900;BME280;47853;55.890;37.664;2023-08-30T05:36:13;99236.78;;;21.25;91.89
61900;BME280;47853;55.890;37.664;2023-08-30T05:38:38;99228.19;;;20.99;92.98
61900;BME280;47853;55.890;37.664;2023-08-30T05:41:03;99233.81;;;20.98;94.79
61900;BME280;47853;55.890;37.664;2023-08-30T05:43:28;99229.97;;;21.52;90.17
61900;BME280;47853;55.890;37.664;2023-08-30T05:45:54;99243.19;;;21.99;87.64
61900;BME280;47853;55.890;37.664;2023-08-30T05:48:19;99250.88;;;22.08;85.85
61900;BME280;47853;55.890;37.664;2023-08-30T05:50:44;99260.19;;;22.51;82.60
61900;BME280;47853;55.890;37.664;2023-08-30T05:53:10;99251.19;;;22.68;80.06
61900;BME280;47853;55.890;37.664;2023-08-30T05:55:35;99249.47;;;22.22;84.57
61900;BME280;47853;55.890;37.664;2023-08-30T05:58:00;99258.25;;;21.78;88.47
61900;BME280;47853;55.890;37.664;2023-08-30T06:00:26;99269.41;;;21.53;90.01
61900;BME280;47853;55.890;37.664;2023-08-30T06:02:52;99248.88;;;21.52;92.70
61900;BME280;47853;55.890;37.664;2023-08-30T06:05:17;99262.47;;;21.57;90.74
61900;BME280;47853;55.890;37.664;2023-08-30T06:07:43;99261.63;;;22.02;88.38
61900;BME280;47853;55.890;37.664;2023-08-30T06:10:09;99258.19;;;21.44;90.24
61900;BME280;47853;55.890;37.664;2023-08-30T06:12:34;99269.00;;;21.73;89.55
61900;BME280;47853;55.890;37.664;2023-08-30T06:15:00;99267.00;;;22.37;85.63
61900;BME280;47853;55.890;37.664;2023-08-30T06:17:25;99262.81;;;22.29;84.82
61900;BME280;47853;55.890;37.664;2023-08-30T06:19:50;99268.59;;;21.52;91.34
61900;BME280;47853;55.890;37.664;2023-08-30T06:22:16;99267.25;;;21.84;87.55
61900;BME280;47853;55.890;37.664;2023-08-30T06:24:41;99269.09;;;21.95;89.07
61900;BME280;47853;55.890;37.664;2023-08-30T06:27:06;99272.81;;;22.28;85.61
61900;BME280;47853;55.890;37.664;2023-08-30T06:29:31;99264.56;;;22.74;81.66
61900;BME280;47853;55.890;37.664;2023-08-30T06:31:58;99262.63;;;22.97;78.77
61900;BME280;47853;55.890;37.664;2023-08-30T06:34:23;99268.31;;;22.00;84.50
61900;BME280;47853;55.890;37.664;2023-08-30T06:36:48;99264.94;;;22.61;82.14
61900;BME280;47853;55.890;37.664;2023-08-30T06:39:14;99267.25;;;22.97;79.39
61900;BME280;47853;55.890;37.664;2023-08-30T06:41:39;99271.19;;;21.76;84.64
61900;BME280;47853;55.890;37.664;2023-08-30T06:44:05;99270.59;;;21.28;90.03
61900;BME280;47853;55.890;37.664;2023-08-30T06:46:30;99276.16;;;21.38;90.67
61900;BME280;47853;55.890;37.664;2023-08-30T06:48:56;99268.59;;;21.98;87.38
61900;BME280;47853;55.890;37.664;2023-08-30T06:51:21;99267.41;;;22.28;83.42
61900;BME280;47853;55.890;37.664;2023-08-30T06:53:46;99267.94;;;22.87;79.16
61900;BME280;47853;55.890;37.664;2023-08-30T06:56:12;99271.38;;;22.21;82.66
61900;BME280;47853;55.890;37.664;2023-08-30T06:58:37;99281.53;;;21.50;84.76
61900;BME280;47853;55.890;37.664;2023-08-30T07:01:02;99279.41;;;21.98;84.19
61900;BME280;47853;55.890;37.664;2023-08-30T07:03:28;99279.53;;;22.60;80.98
61900;BME280;47853;55.890;37.664;2023-08-30T07:05:56;99274.03;;;23.22;77.52
61900;BME280;47853;55.890;37.664;2023-08-30T07:08:21;99275.06;;;22.93;79.32
61900;BME280;47853;55.890;37.664;2023-08-30T07:10:47;99281.22;;;23.60;72.14
61900;BME280;47853;55.890;37.664;2023-08-30T07:13:12;99286.59;;;23.06;74.92
61900;BME280;47853;55.890;37.664;2023-08-30T07:15:40;99287.22;;;23.63;72.10
61900;BME280;47853;55.890;37.664;2023-08-30T07:18:07;99290.72;;;24.23;69.10
61900;BME280;47853;55.890;37.664;2023-08-30T07:20:33;99284.72;;;24.21;65.99
61900;BME280;47853;55.890;37.664;2023-08-30T07:22:58;99277.66;;;24.68;66.05
61900;BME280;47853;55.890;37.664;2023-08-30T07:25:24;99274.88;;;24.53;66.42
61900;BME280;47853;55.890;37.664;2023-08-30T07:27:49;99288.28;;;24.27;64.14
61900;BME280;47853;55.890;37.664;2023-08-30T07:30:14;99273.31;;;25.31;62.36
61900;BME280;47853;55.890;37.664;2023-08-30T07:32:40;99264.97;;;26.26;55.44
61900;BME280;47853;55.890;37.664;2023-08-30T07:35:05;99277.19;;;26.02;55.54
61900;BME280;47853;55.890;37.664;2023-08-30T07:37:31;99290.50;;;26.40;54.99
61900;BME280;47853;55.890;37.664;2023-08-30T07:39:56;99275.56;;;25.70;54.53
61900;BME280;47853;55.890;37.664;2023-08-30T07:42:22;99285.63;;;25.70;56.94
61900;BME280;47853;55.890;37.664;2023-08-30T07:44:47;99288.00;;;25.40;58.39
61900;BME280;47853;55.890;37.664;2023-08-30T07:47:12;99292.97;;;26.11;55.56
61900;BME280;47853;55.890;37.664;2023-08-30T07:49:38;99303.72;;;25.28;57.79
61900;BME280;47853;55.890;37.664;2023-08-30T07:52:04;99297.88;;;24.40;62.19
61900;BME280;47853;55.890;37.664;2023-08-30T07:54:30;99292.50;;;24.07;63.99
61900;BME280;47853;55.890;37.664;2023-08-30T07:56:56;99282.47;;;24.51;61.83
61900;BME280;47853;55.890;37.664;2023-08-30T07:59:21;99293.88;;;24.53;62.60
61900;BME280;47853;55.890;37.664;2023-08-30T08:01:47;99302.59;;;24.60;63.50
61900;BME280;47853;55.890;37.664;2023-08-30T08:04:12;99294.97;;;24.52;64.71
61900;BME280;47853;55.890;37.664;2023-08-30T08:06:37;99309.09;;;24.54;64.55
61900;BME280;47853;55.890;37.664;2023-08-30T08:09:03;99299.50;;;23.70;68.92
61900;BME280;47853;55.890;37.664;2023-08-30T08:11:29;99300.25;;;23.66;70.41
61900;BME280;47853;55.890;37.664;2023-08-30T08:13:54;99304.69;;;24.42;66.25
61900;BME280;47853;55.890;37.664;2023-08-30T08:16:19;99307.59;;;23.98;67.67
61900;BME280;47853;55.890;37.664;2023-08-30T08:18:45;99307.75;;;24.56;65.69
61900;BME280;47853;55.890;37.664;2023-08-30T08:21:10;99306.09;;;24.12;65.85
61900;BME280;47853;55.890;37.664;2023-08-30T08:23:35;99317.25;;;23.34;73.29
61900;BME280;47853;55.890;37.664;2023-08-30T08:26:01;99326.53;;;23.65;71.17
61900;BME280;47853;55.890;37.664;2023-08-30T08:28:26;99318.59;;;23.31;72.09
61900;BME280;47853;55.890;37.664;2023-08-30T08:30:52;99321.47;;;24.01;69.13
61900;BME280;47853;55.890;37.664;2023-08-30T08:33:20;99323.94;;;23.75;69.71
61900;BME280;47853;55.890;37.664;2023-08-30T08:35:48;99328.44;;;22.76;77.35
61900;BME280;47853;55.890;37.664;2023-08-30T08:38:13;99327.66;;;22.24;83.63
61900;BME280;47853;55.890;37.664;2023-08-30T08:40:38;99331.75;;;21.63;88.11
61900;BME280;47853;55.890;37.664;2023-08-30T08:43:05;99332.66;;;22.49;83.20
61900;BME280;47853;55.890;37.664;2023-08-30T08:45:34;99325.69;;;22.53;84.28
61900;BME280;47853;55.890;37.664;2023-08-30T08:48:04;99326.13;;;23.79;74.50
61900;BME280;47853;55.890;37.664;2023-08-30T08:50:29;99333.00;;;24.62;67.88
61900;BME280;47853;55.890;37.664;2023-08-30T08:52:56;99343.22;;;25.46;60.71
61900;BME280;47853;55.890;37.664;2023-08-30T08:55:21;99335.38;;;25.65;58.24
61900;BME280;47853;55.890;37.664;2023-08-30T08:57:52;99340.50;;;25.56;58.43
61900;BME280;47853;55.890;37.664;2023-08-30T09:00:18;99339.72;;;25.66;59.50
61900;BME280;47853;55.890;37.664;2023-08-30T09:02:43;99333.13;;;25.41;59.66
61900;BME280;47853;55.890;37.664;2023-08-30T09:05:10;99341.41;;;25.88;57.11
61900;BME280;47853;55.890;37.664;2023-08-30T09:07:35;99326.13;;;25.61;58.93
61900;BME280;47853;55.890;37.664;2023-08-30T09:10:01;99329.94;;;24.86;63.83
61900;BME280;47853;55.890;37.664;2023-08-30T09:12:27;99344.63;;;24.90;62.90
61900;BME280;47853;55.890;37.664;2023-08-30T09:14:56;99342.72;;;24.47;63.63
61900;BME280;47853;55.890;37.664;2023-08-30T09:17:21;99334.84;;;24.51;63.11
61900;BME280;47853;55.890;37.664;2023-08-30T09:19:47;99347.75;;;25.30;59.02
61900;BME280;47853;55.890;37.664;2023-08-30T09:22:12;99348.59;;;27.17;51.64
61900;BME280;47853;55.890;37.664;2023-08-30T09:24:38;99345.38;;;28.64;45.31
61900;BME280;47853;55.890;37.664;2023-08-30T09:27:04;99344.97;;;24.23;60.34
61900;BME280;47853;55.890;37.664;2023-08-30T09:29:29;99344.88;;;23.58;69.71
61900;BME280;47853;55.890;37.664;2023-08-30T09:31:55;99347.88;;;23.34;70.93
61900;BME280;47853;55.890;37.664;2023-08-30T09:34:24;99351.53;;;22.61;75.36
61900;BME280;47853;55.890;37.664;2023-08-30T09:36:50;99331.50;;;24.01;67.40
61900;BME280;47853;55.890;37.664;2023-08-30T09:39:15;99335.31;;;24.75;64.50
61900;BME280;47853;55.890;37.664;2023-08-30T09:41:42;99343.06;;;26.20;54.83
61900;BME280;47853;55.890;37.664;2023-08-30T09:44:11;99346.78;;;26.71;53.19
61900;BME280;47853;55.890;37.664;2023-08-30T09:46:55;99333.50;;;25.86;56.53
61900;BME280;47853;55.890;37.664;2023-08-30T09:49:21;99359.34;;;26.04;54.00
61900;BME280;47853;55.890;37.664;2023-08-30T09:51:47;99349.38;;;27.17;51.25
61900;BME280;47853;55.890;37.664;2023-08-30T09:54:18;99346.06;;;28.21;45.98
61900;BME280;47853;55.890;37.664;2023-08-30T09:56:45;99365.50;;;29.85;40.11
61900;BME280;47853;55.890;37.664;2023-08-30T09:59:11;99354.41;;;29.57;40.85
61900;BME280;47853;55.890;37.664;2023-08-30T10:01:41;99364.03;;;30.59;38.18
61900;BME280;47853;55.890;37.664;2023-08-30T10:04:10;99361.91;;;31.90;34.88
61900;BME280;47853;55.890;37.664;2023-08-30T10:06:39;99359.31;;;30.45;36.27
61900;BME280;47853;55.890;37.664;2023-08-30T10:09:06;99373.81;;;30.93;36.21
61900;BME280;47853;55.890;37.664;2023-08-30T10:11:35;99377.03;;;28.01;42.83
61900;BME280;47853;55.890;37.664;2023-08-30T10:14:05;99374.97;;;29.73;39.87
61900;BME280;47853;55.890;37.664;2023-08-30T10:16:51;99369.72;;;29.58;39.75
61900;BME280;47853;55.890;37.664;2023-08-30T10:19:29;99368.72;;;28.21;43.17
61900;BME280;47853;55.890;37.664;2023-08-30T10:22:05;99373.94;;;30.41;38.72
61900;BME280;47853;55.890;37.664;2023-08-30T10:25:01;99370.47;;;31.38;35.51
61900;BME280;47853;55.890;37.664;2023-08-30T10:27:28;99356.72;;;31.52;35.65
61900;BME280;47853;55.890;37.664;2023-08-30T10:29:55;99369.31;;;29.26;39.38
61900;BME280;47853;55.890;37.664;2023-08-30T10:32:21;99360.75;;;30.09;39.16
61900;BME280;47853;55.890;37.664;2023-08-30T10:34:48;99363.16;;;31.84;34.63
61900;BME280;47853;55.890;37.664;2023-08-30T10:37:14;99356.75;;;31.10;35.62
61900;BME280;47853;55.890;37.664;2023-08-30T10:39:41;99360.94;;;32.40;33.34
61900;BME280;47853;55.890;37.664;2023-08-30T10:42:13;99354.06;;;34.03;30.57
61900;BME280;47853;55.890;37.664;2023-08-30T10:47:22;99352.69;;;32.40;31.97
61900;BME280;47853;55.890;37.664;2023-08-30T10:49:49;99351.66;;;33.66;30.99
61900;BME280;47853;55.890;37.664;2023-08-30T10:52:15;99355.41;;;34.92;28.29
61900;BME280;47853;55.890;37.664;2023-08-30T10:54:40;99354.06;;;33.41;31.00
61900;BME280;47853;55.890;37.664;2023-08-30T11:10:34;99359.75;;;29.23;42.06
61900;BME280;47853;55.890;37.664;2023-08-30T11:13:01;99351.84;;;31.86;36.17
61900;BME280;47853;55.890;37.664;2023-08-30T11:15:26;99348.94;;;31.17;35.61
61900;BME280;47853;55.890;37.664;2023-08-30T11:18:02;99347.81;;;31.32;35.76
61900;BME280;47853;55.890;37.664;2023-08-30T11:20:27;99353.09;;;32.02;33.92
61900;BME280;47853;55.890;37.664;2023-08-30T11:22:55;99346.78;;;32.02;33.96
61900;BME280;47853;55.890;37.664;2023-08-30T11:25:21;99345.34;;;32.27;33.05
61900;BME280;47853;55.890;37.664;2023-08-30T11:27:46;99337.25;;;31.62;34.07
61900;BME280;47853;55.890;37.664;2023-08-30T11:30:12;99351.28;;;30.02;37.74
61900;BME280;47853;55.890;37.664;2023-08-30T11:32:42;99340.41;;;30.91;35.69
61900;BME280;47853;55.890;37.664;2023-08-30T11:35:08;99340.09;;;31.71;34.47
61900;BME280;47853;55.890;37.664;2023-08-30T11:37:33;99344.22;;;30.48;36.65
61900;BME280;47853;55.890;37.664;2023-08-30T11:39:59;99341.00;;;31.16;36.40
61900;BME280;47853;55.890;37.664;2023-08-30T11:42:26;99343.88;;;31.24;36.11
61900;BME280;47853;55.890;37.664;2023-08-30T11:44:52;99340.56;;;32.33;33.62
61900;BME280;47853;55.890;37.664;2023-08-30T11:47:24;99353.09;;;29.30;40.89
61900;BME280;47853;55.890;37.664;2023-08-30T11:49:52;99352.84;;;31.53;36.44
61900;BME280;47853;55.890;37.664;2023-08-30T11:52:18;99356.44;;;31.39;36.45
61900;BME280;47853;55.890;37.664;2023-08-30T11:54:44;99359.41;;;34.08;31.76
61900;BME280;47853;55.890;37.664;2023-08-30T11:57:10;99344.00;;;31.56;34.87
61900;BME280;47853;55.890;37.664;2023-08-30T11:59:35;99342.56;;;30.80;37.92
61900;BME280;47853;55.890;37.664;2023-08-30T12:02:02;99352.78;;;30.60;37.71
61900;BME280;47853;55.890;37.664;2023-08-30T12:04:27;99350.72;;;30.52;38.68
61900;BME280;47853;55.890;37.664;2023-08-30T12:06:53;99354.25;;;25.24;57.77
61900;BME280;47853;55.890;37.664;2023-08-30T12:09:18;99330.81;;;24.59;64.96
61900;BME280;47853;55.890;37.664;2023-08-30T12:11:43;99340.25;;;24.46;66.58
61900;BME280;47853;55.890;37.664;2023-08-30T12:14:09;99337.75;;;24.77;66.75
61900;BME280;47853;55.890;37.664;2023-08-30T12:16:34;99330.66;;;23.45;71.95
61900;BME280;47853;55.890;37.664;2023-08-30T12:19:10;99328.81;;;24.44;70.17
61900;BME280;47853;55.890;37.664;2023-08-30T12:21:42;99336.56;;;25.16;65.47
61900;BME280;47853;55.890;37.664;2023-08-30T12:24:10;99322.06;;;25.84;59.41
61900;BME280;47853;55.890;37.664;2023-08-30T12:26:36;99325.41;;;24.59;67.33
61900;BME280;47853;55.890;37.664;2023-08-30T12:29:01;99313.72;;;24.53;67.40
61900;BME280;47853;55.890;37.664;2023-08-30T12:31:27;99307.50;;;24.20;68.76
61900;BME280;47853;55.890;37.664;2023-08-30T12:33:52;99312.25;;;24.40;67.87
61900;BME280;47853;55.890;37.664;2023-08-30T12:36:17;99304.25;;;24.18;71.63
61900;BME280;47853;55.890;37.664;2023-08-30T12:38:42;99297.06;;;23.46;67.94
61900;BME280;47853;55.890;37.664;2023-08-30T12:41:08;99298.41;;;23.71;68.98
61900;BME280;47853;55.890;37.664;2023-08-30T12:43:33;99301.50;;;23.58;67.78
61900;BME280;47853;55.890;37.664;2023-08-30T12:45:59;99284.53;;;23.68;67.96
61900;BME280;47853;55.890;37.664;2023-08-30T12:48:24;99293.06;;;24.09;68.33
61900;BME280;47853;55.890;37.664;2023-08-30T12:50:50;99282.44;;;24.08;68.75
61900;BME280;47853;55.890;37.664;2023-08-30T12:53:15;99279.84;;;22.86;76.34
61900;BME280;47853;55.890;37.664;2023-08-30T12:55:40;99284.03;;;23.43;72.62
61900;BME280;47853;55.890;37.664;2023-08-30T12:58:07;99277.53;;;24.04;68.90
61900;BME280;47853;55.890;37.664;2023-08-30T13:00:33;99263.81;;;24.59;67.52
61900;BME280;47853;55.890;37.664;2023-08-30T13:02:59;99270.91;;;24.71;66.33